Henderson, NC

1:19 AM EDT on August 29, 2016 (GMT -0400)
Dabney Community | | Change Station

Elev 476 ft 36.34 °N, 78.48 °W | Updated 8 minutes ago

Clear
Clear
71.2 °F
Feels Like 71.2 °F
N
0.0
Wind Variable Wind from East

Today
High -- | Low -- °F
--% Chance of Precip.
Yesterday
High -- | Low -- °F
Precip. -- in
Pressure 30.19 in
Visibility 10.0 miles
Clouds Clear
Dew Point 70 °F
Humidity 96%
Rainfall 0.00 in
Snow Depth Not available.
6:43 AM 7:45 PM
Waning Crescent, 11% visible
METAR KHNZ 290500Z AUTO 00000KT 10SM CLR 21/19 A3019 RMK AO2 T02100190
Pressure 30.19 in
Visibility 10.0 miles
Clouds Clear
Dew Point 70 °F
Humidity 96%
Rainfall 0.00 in
Snow Depth Not available.
6:43 AM 7:45 PM
Waning Crescent, 11% visible
METAR KHNZ 290500Z AUTO 00000KT 10SM CLR 21/19 A3019 RMK AO2 T02100190
Tropical Depression Eight formed on Sunday in the western Atlantic Ocean between North Carolina and Bermuda. This depression could strengthen into a tropical storm on Monday. The depression was centered about 350 miles southeast of Cape Hatteras, North Carolina, as of Sunday evening, moving west at 9 mph.

According to the National Hurricane Center shows, this system will track to near the Outer Banks of North Carolina by Tuesday. Thereafter, a cold front will move across the Northeast and will likely whisk it back out to sea.

10-Day Weather Forecast

Almanac

Astronomy

Aug. 29, 2016 Rise Set
Actual Time
Civil Twilight
Nautical Twilight
Astronomical Twilight
Moon
Length of Visible Light
Length of Day
Tomorrow will be .
, % of the Moon is Illuminated

Today's Extremes

State Highs State Lows

Community

WunderPhotos

Upload Photos

1,935,800 photos uploaded!

WunderBlog® & News

Nearby

Air Quality

  Air Quality AQ Index Pollutant
Not available.

Snow Depth

Station Depth Elevation

Earthquake Activity

City Distance Mag. Time & Date
Minimum magnitude displayed is 2.5.

Coastal Water Temperatures

Place Temperature

Stations

Nearby Weather Stations

Station Location Temp. Windchill Dew Point Humidity Wind Precip. Elev Updated Type
                   

Watches & Warnings

There are currently no watches in effect.